Time;durP1;ratioP1;P1;durP2;ratioP2;P2;SDS_P1;SDS_P2;PMS_P1;PMS_P2;Temp;Humidity;BMP_temperature;BMP_pressure;BME280_temperature;BME280_humidity;BME280_pressure;Samples;Min_cycle;Max_cycle;Signal;HPM_P1;HPM_P2
2023/03/19 00:02:20;;;;;;;11.70;7.80;;;;;;;;;;6344166;22;20434;-79
2023/03/19 00:08:14;;;;;;;8.10;7.30;;;;;;;;;;6343339;22;20418;-79
2023/03/19 00:13:53;;;;;;;10.17;8.07;;;;;;;;;;6326347;22;20810;-78
2023/03/19 00:16:51;;;;;;;;;;;;;;;;;;;;;
2023/03/19 01:15:01;;;;;;;9.50;8.60;;;;;;;;;;5808253;24;20828;-78
2023/03/19 01:17:49;;;;;;;16.03;12.40;;;;;;;;;;5950842;23;20417;-79
2023/03/19 01:20:30;;;;;;;10.30;9.30;;;;;;;;;;6127405;23;20456;-78
2023/03/19 01:23:28;;;;;;;;;;;;;;;;;;;;;
2023/03/19 01:26:11;;;;;;;9.47;8.57;;;;;;;;;;6271447;22;20463;-78
2023/03/19 01:29:07;;;;;;;10.13;7.90;;;;;;;;;;6278980;22;20596;-78
2023/03/19 01:31:53;;;;;;;9.40;8.00;;;;;;;;;;6265848;22;20423;-78
2023/03/19 01:34:41;;;;;;;8.70;7.90;;;;;;;;;;6279064;22;20440;-78
2023/03/19 01:37:15;;;;;;;8.87;8.07;;;;;;;;;;6280145;22;20373;-78
2023/03/19 01:42:43;;;;;;;10.90;8.57;;;;;;;;;;6282749;22;20746;-77
2023/03/19 01:45:40;;;;;;;8.93;7.57;;;;;;;;;;6282185;22;20456;-78
2023/03/19 01:48:26;;;;;;;8.80;7.90;;;;;;;;;;6283765;22;20796;-76
2023/03/19 01:51:06;;;;;;;7.80;6.20;;;;;;;;;;6278690;22;20490;-79
2023/03/19 01:54:01;;;;;;;11.77;7.40;;;;;;;;;;6276951;22;20519;-76
2023/03/19 01:56:51;;;;;;;9.20;6.77;;;;;;;;;;6280471;22;20436;-77
2023/03/19 01:59:46;;;;;;;8.67;5.67;;;;;;;;;;6280014;22;20412;-78
2023/03/19 02:02:29;;;;;;;6.27;5.67;;;;;;;;;;6278360;22;20409;-77
2023/03/19 02:05:14;;;;;;;7.67;5.20;;;;;;;;;;6277113;22;20786;-78
2023/03/19 02:08:03;;;;;;;6.40;5.80;;;;;;;;;;6278444;22;20407;-77
2023/03/19 02:10:42;;;;;;;3.17;2.97;;;;;;;;;;6278026;22;20745;-78
2023/03/19 02:16:11;;;;;;;3.13;2.83;;;;;;;;;;6267787;22;20455;-78
2023/03/19 02:18:53;;;;;;;4.47;3.67;;;;;;;;;;6277457;22;20408;-79
2023/03/19 02:21:43;;;;;;;3.43;3.13;;;;;;;;;;6277658;22;20408;-77
2023/03/19 02:24:44;;;;;;;3.77;3.40;;;;;;;;;;6277434;22;20436;-77
2023/03/19 02:27:22;;;;;;;4.20;3.50;;;;;;;;;;6279013;22;20408;-78
2023/03/19 02:32:48;;;;;;;4.40;2.87;;;;;;;;;;6271818;22;20400;-78
2023/03/19 02:35:24;;;;;;;3.03;2.83;;;;;;;;;;6275459;22;20436;-76
2023/03/19 02:40:53;;;;;;;2.90;2.73;;;;;;;;;;6274710;22;20443;-78
2023/03/19 02:43:31;;;;;;;3.20;2.93;;;;;;;;;;6260337;22;20495;-77
2023/03/19 02:46:09;;;;;;;3.10;2.70;;;;;;;;;;6247150;23;20435;-76
2023/03/19 02:48:42;;;;;;;3.97;3.67;;;;;;;;;;6247437;23;20499;-79
2023/03/19 02:51:18;;;;;;;4.40;4.03;;;;;;;;;;6247405;23;20413;-77
2023/03/19 02:54:04;;;;;;;6.20;3.80;;;;;;;;;;6246531;23;20445;-76
2023/03/19 02:56:39;;;;;;;4.13;3.73;;;;;;;;;;6248098;23;20428;-77
2023/03/19 02:59:18;;;;;;;5.03;4.53;;;;;;;;;;6246614;23;20420;-77
2023/03/19 03:01:58;;;;;;;4.67;4.20;;;;;;;;;;6245920;23;20413;-77
2023/03/19 03:04:41;;;;;;;4.73;4.33;;;;;;;;;;6246423;23;20452;-77
2023/03/19 03:07:14;;;;;;;4.20;3.90;;;;;;;;;;6243491;23;20413;-77
2023/03/19 03:09:48;;;;;;;4.60;4.30;;;;;;;;;;6248864;23;20398;-78
2023/03/19 03:12:17;;;;;;;4.10;3.73;;;;;;;;;;6249951;23;20483;-77
2023/03/19 03:14:53;;;;;;;4.40;4.00;;;;;;;;;;6250319;23;20453;-76
2023/03/19 03:17:37;;;;;;;4.93;4.43;;;;;;;;;;6252300;23;20415;-77
2023/03/19 03:23:03;;;;;;;4.93;4.57;;;;;;;;;;6248924;23;20474;-78
2023/03/19 03:25:36;;;;;;;5.00;4.70;;;;;;;;;;6251276;23;20444;-78
2023/03/19 03:31:18;;;;;;;5.63;5.13;;;;;;;;;;6234008;23;20894;-77
2023/03/19 03:34:03;;;;;;;6.37;5.57;;;;;;;;;;6246785;23;20502;-76
2023/03/19 03:36:59;;;;;;;;;;;;;;;;;;;;;
2023/03/19 03:39:42;;;;;;;6.20;5.60;;;;;;;;;;6252386;23;20386;-77
2023/03/19 03:42:41;;;;;;;5.53;5.10;;;;;;;;;;6249887;22;20413;-77
2023/03/19 03:45:30;;;;;;;4.57;4.27;;;;;;;;;;6249445;23;20497;-77
2023/03/19 03:48:04;;;;;;;5.17;4.77;;;;;;;;;;6250117;23;20457;-76
2023/03/19 03:50:39;;;;;;;6.03;5.63;;;;;;;;;;6248359;23;20423;-77
2023/03/19 03:53:32;;;;;;;8.80;5.70;;;;;;;;;;6246323;23;20454;-77
2023/03/19 03:56:20;;;;;;;5.50;5.10;;;;;;;;;;6246130;23;20466;-78
2023/03/19 04:01:58;;;;;;;6.20;5.70;;;;;;;;;;6238772;23;20385;-78
2023/03/19 04:04:32;;;;;;;6.30;5.70;;;;;;;;;;6245548;23;20512;-77
2023/03/19 04:07:12;;;;;;;7.17;6.50;;;;;;;;;;6246512;23;20455;-79
2023/03/19 04:10:05;;;;;;;6.57;6.07;;;;;;;;;;6246300;23;20455;-77
2023/03/19 04:18:25;;;;;;;6.13;5.60;;;;;;;;;;6241371;23;20455;-78
2023/03/19 04:21:01;;;;;;;6.53;5.80;;;;;;;;;;6245907;23;20441;-77
2023/03/19 04:23:35;;;;;;;6.10;5.60;;;;;;;;;;6246034;23;20467;-78
2023/03/19 04:26:27;;;;;;;6.37;5.80;;;;;;;;;;6247096;23;20409;-77
2023/03/19 04:29:26;;;;;;;;;;;;;;;;;;;;;
2023/03/19 04:32:04;;;;;;;5.53;5.13;;;;;;;;;;6238252;23;20406;-77
2023/03/19 04:34:41;;;;;;;6.33;5.83;;;;;;;;;;6246104;23;20452;-76
2023/03/19 04:37:28;;;;;;;;;;;;;;;;;;;;;
2023/03/19 04:40:13;;;;;;;7.13;6.53;;;;;;;;;;6252376;23;20389;-77
2023/03/19 04:45:38;;;;;;;6.70;6.20;;;;;;;;;;6250013;23;20493;-78
2023/03/19 04:48:23;;;;;;;7.00;6.40;;;;;;;;;;6259533;23;20960;-76
2023/03/19 04:51:07;;;;;;;8.20;7.50;;;;;;;;;;6248118;23;20432;-77
2023/03/19 04:54:07;;;;;;;;;;;;;;;;;;;;;
2023/03/19 04:56:52;;;;;;;8.07;7.40;;;;;;;;;;6247721;23;20394;-77
2023/03/19 04:59:35;;;;;;;7.70;7.00;;;;;;;;;;6247137;23;20471;-76
2023/03/19 05:05:21;;;;;;;7.40;6.80;;;;;;;;;;6245193;23;20767;-77
2023/03/19 05:10:58;;;;;;;7.93;7.13;;;;;;;;;;6250695;23;20431;-76
2023/03/19 05:13:59;;;;;;;8.47;7.87;;;;;;;;;;6252183;23;20496;-78
2023/03/19 05:16:38;;;;;;;6.17;5.67;;;;;;;;;;6253601;23;20894;-77
2023/03/19 05:19:29;;;;;;;;;;;;;;;;;;;;;
2023/03/19 05:22:06;;;;;;;4.70;4.40;;;;;;;;;;6259598;23;20385;-77
2023/03/19 05:24:51;;;;;;;5.70;5.17;;;;;;;;;;6260101;23;20504;-77
2023/03/19 05:27:25;;;;;;;5.60;5.20;;;;;;;;;;6257388;23;20401;-78
2023/03/19 05:30:05;;;;;;;5.70;5.30;;;;;;;;;;6255780;23;20412;-77
2023/03/19 05:32:36;;;;;;;7.50;6.73;;;;;;;;;;6255321;23;20424;-77
2023/03/19 05:35:16;;;;;;;9.10;8.03;;;;;;;;;;6254832;23;20437;-77
2023/03/19 05:37:52;;;;;;;8.13;7.53;;;;;;;;;;6253915;23;20444;-76
2023/03/19 05:40:30;;;;;;;8.87;8.00;;;;;;;;;;6251430;23;20491;-78
2023/03/19 05:43:11;;;;;;;8.30;7.50;;;;;;;;;;6249905;22;20505;-77
2023/03/19 05:45:58;;;;;;;7.80;7.20;;;;;;;;;;6251551;23;20429;-78
2023/03/19 05:48:36;;;;;;;6.60;6.00;;;;;;;;;;6253227;23;20405;-77
2023/03/19 05:51:08;;;;;;;5.73;5.03;;;;;;;;;;6259714;23;20417;-76
2023/03/19 05:53:53;;;;;;;7.70;6.53;;;;;;;;;;6259407;23;20409;-77
2023/03/19 05:56:31;;;;;;;6.97;5.43;;;;;;;;;;6234476;23;20492;-78
2023/03/19 05:59:03;;;;;;;6.50;5.03;;;;;;;;;;6258378;23;20429;-77
2023/03/19 06:01:42;;;;;;;;;;;;;;;;;;;;;
2023/03/19 06:04:14;;;;;;;4.97;4.57;;;;;;;;;;6259729;23;20417;-78
2023/03/19 06:06:57;;;;;;;7.30;5.33;;;;;;;;;;6264156;23;20460;-77
2023/03/19 06:09:33;;;;;;;4.57;4.17;;;;;;;;;;6259571;23;20883;-77
2023/03/19 06:12:08;;;;;;;5.10;4.63;;;;;;;;;;6261099;23;20409;-76
2023/03/19 06:14:39;;;;;;;4.70;4.17;;;;;;;;;;6260174;23;20440;-78
2023/03/19 06:17:08;;;;;;;5.40;4.43;;;;;;;;;;6259152;23;20740;-77
2023/03/19 06:19:43;;;;;;;5.07;4.67;;;;;;;;;;6259156;23;20433;-79
2023/03/19 06:22:14;;;;;;;6.83;4.40;;;;;;;;;;6261813;23;20414;-77
2023/03/19 06:31:03;;;;;;;5.53;4.73;;;;;;;;;;6233281;23;20394;-77
2023/03/19 06:34:12;;;;;;;;;;;;;;;;;;;;;
2023/03/19 06:37:15;;;;;;;4.80;3.90;;;;;;;;;;6261857;23;20404;-77
2023/03/19 06:40:21;;;;;;;4.13;3.70;;;;;;;;;;6075992;23;20785;-78
2023/03/19 06:42:53;;;;;;;4.20;3.80;;;;;;;;;;6196971;22;20424;-78
2023/03/19 06:45:23;;;;;;;5.23;4.73;;;;;;;;;;6255555;23;20425;-78
2023/03/19 06:47:54;;;;;;;4.37;3.97;;;;;;;;;;6259761;23;20429;-77
2023/03/19 06:50:29;;;;;;;4.50;4.10;;;;;;;;;;6256432;23;20382;-77
2023/03/19 06:53:01;;;;;;;3.97;3.67;;;;;;;;;;6261648;23;20389;-78
2023/03/19 06:55:29;;;;;;;4.87;4.47;;;;;;;;;;6262523;23;20441;-78
2023/03/19 06:58:11;;;;;;;7.23;5.70;;;;;;;;;;6262805;23;20437;-77
2023/03/19 07:00:43;;;;;;;7.37;6.37;;;;;;;;;;6263831;23;20394;-78
2023/03/19 07:03:21;;;;;;;13.73;11.47;;;;;;;;;;6261212;23;20406;-77
2023/03/19 07:06:09;;;;;;;9.13;8.33;;;;;;;;;;6251190;23;20413;-77
2023/03/19 07:08:45;;;;;;;10.23;6.60;;;;;;;;;;6220916;23;20503;-77
2023/03/19 07:11:24;;;;;;;5.00;4.60;;;;;;;;;;6251637;23;20409;-77
2023/03/19 07:14:10;;;;;;;4.97;4.40;;;;;;;;;;6250815;23;20945;-78
2023/03/19 07:16:49;;;;;;;4.70;4.30;;;;;;;;;;6252225;23;20431;-77
2023/03/19 07:22:12;;;;;;;5.03;4.60;;;;;;;;;;6252951;23;20390;-77
2023/03/19 07:28:04;;;;;;;4.10;3.80;;;;;;;;;;6251561;23;20440;-77
2023/03/19 07:31:07;;;;;;;3.70;3.40;;;;;;;;;;6253870;23;20405;-76
2023/03/19 07:33:57;;;;;;;5.03;4.53;;;;;;;;;;6254416;23;20413;-78
2023/03/19 07:36:36;;;;;;;3.83;3.50;;;;;;;;;;6231775;23;20464;-78
2023/03/19 07:39:09;;;;;;;4.30;3.90;;;;;;;;;;6253764;23;20764;-77
2023/03/19 07:41:50;;;;;;;4.00;3.70;;;;;;;;;;6257895;23;20432;-77
2023/03/19 07:44:24;;;;;;;6.47;5.20;;;;;;;;;;6263024;22;20459;-76
2023/03/19 07:46:58;;;;;;;7.00;6.30;;;;;;;;;;6263742;23;20687;-78
2023/03/19 07:52:33;;;;;;;6.20;5.70;;;;;;;;;;6260084;23;20389;-78
2023/03/19 07:55:06;;;;;;;6.67;6.07;;;;;;;;;;6263264;23;20433;-78
2023/03/19 07:57:56;;;;;;;6.13;5.53;;;;;;;;;;6263243;23;20489;-78
2023/03/19 08:00:43;;;;;;;5.57;5.17;;;;;;;;;;6263196;23;20463;-78
2023/03/19 08:03:19;;;;;;;6.17;5.67;;;;;;;;;;6262603;23;20385;-78
2023/03/19 08:09:15;;;;;;;5.77;5.17;;;;;;;;;;6138200;23;20374;-79
2023/03/19 08:11:53;;;;;;;6.00;5.50;;;;;;;;;;6139570;23;20427;-77
2023/03/19 08:14:34;;;;;;;6.20;4.67;;;;;;;;;;6140778;23;20424;-77
2023/03/19 08:17:05;;;;;;;5.33;4.83;;;;;;;;;;6137749;23;20413;-77
2023/03/19 08:19:39;;;;;;;6.13;5.63;;;;;;;;;;6138685;23;20413;-78
2023/03/19 08:25:06;;;;;;;6.63;6.00;;;;;;;;;;6248927;23;20444;-79
2023/03/19 08:27:47;;;;;;;6.33;5.70;;;;;;;;;;6252983;23;20495;-77
2023/03/19 08:30:37;;;;;;;5.63;5.13;;;;;;;;;;6252330;23;20463;-77
2023/03/19 08:35:59;;;;;;;5.70;5.20;;;;;;;;;;6240109;23;20425;-78
2023/03/19 08:38:41;;;;;;;8.30;5.50;;;;;;;;;;6249604;23;20412;-78
2023/03/19 08:41:18;;;;;;;9.07;7.90;;;;;;;;;;6250933;23;20384;-76
2023/03/19 08:44:19;;;;;;;8.50;7.60;;;;;;;;;;6255668;22;20433;-78
2023/03/19 08:47:32;;;;;;;5.93;5.53;;;;;;;;;;6250999;23;20413;-78
2023/03/19 08:59:16;;;;;;;6.00;5.40;;;;;;;;;;6179929;23;20420;-77
2023/03/19 09:02:04;;;;;;;5.03;4.57;;;;;;;;;;6253033;23;20433;-78
2023/03/19 09:07:44;;;;;;;;;;;;;;;;;;;;;
2023/03/19 09:13:26;;;;;;;5.30;4.80;;;;;;;;;;6217341;23;20414;-78
2023/03/19 09:33:34;;;;;;;5.93;5.33;;;;;;;;;;6095724;23;20394;-78
2023/03/19 09:36:15;;;;;;;4.70;3.97;;;;;;;;;;6125112;23;20437;-78
2023/03/19 09:39:14;;;;;;;4.57;4.20;;;;;;;;;;6173413;23;20418;-78
2023/03/19 09:44:42;;;;;;;5.57;5.07;;;;;;;;;;6182343;23;20427;-77
2023/03/19 09:47:40;;;;;;;5.13;4.73;;;;;;;;;;6189569;23;20415;-78
2023/03/19 09:53:12;;;;;;;5.60;5.10;;;;;;;;;;6182237;23;20398;-78
2023/03/19 09:58:45;;;;;;;3.40;3.20;;;;;;;;;;6175504;23;20760;-76
2023/03/19 10:01:36;;;;;;;4.17;3.17;;;;;;;;;;6182865;23;20417;-77
2023/03/19 10:53:35;;;;;;;2.20;2.10;;;;;;;;;;6143126;22;20398;-78
2023/03/19 10:56:09;;;;;;;2.63;2.23;;;;;;;;;;6306993;22;20511;-77
2023/03/19 10:58:44;;;;;;;2.70;2.50;;;;;;;;;;6307674;22;20470;-77
2023/03/19 11:01:23;;;;;;;2.93;2.60;;;;;;;;;;6307730;22;20407;-78
2023/03/19 11:04:03;;;;;;;2.50;2.30;;;;;;;;;;6306982;22;20563;-77
2023/03/19 11:06:46;;;;;;;2.53;2.33;;;;;;;;;;6307599;22;20379;-77
2023/03/19 11:09:25;;;;;;;4.27;2.50;;;;;;;;;;6306788;22;20411;-78
2023/03/19 11:12:14;;;;;;;2.30;2.10;;;;;;;;;;6307119;22;20392;-78
2023/03/19 11:14:47;;;;;;;2.70;2.47;;;;;;;;;;6306825;22;20438;-77
2023/03/19 11:17:33;;;;;;;2.60;2.40;;;;;;;;;;6307155;22;20395;-78
2023/03/19 11:20:10;;;;;;;2.73;2.53;;;;;;;;;;6307230;22;20399;-79
2023/03/19 11:22:42;;;;;;;2.80;2.20;;;;;;;;;;6307790;22;20405;-77
2023/03/19 11:25:21;;;;;;;3.43;2.43;;;;;;;;;;6308389;22;20400;-77
2023/03/19 11:28:00;;;;;;;2.67;2.43;;;;;;;;;;6308899;22;20407;-78
2023/03/19 11:30:41;;;;;;;3.93;2.43;;;;;;;;;;6308390;22;20399;-76
2023/03/19 11:33:31;;;;;;;5.77;2.30;;;;;;;;;;6309771;22;20411;-78
2023/03/19 11:36:17;;;;;;;3.07;2.63;;;;;;;;;;6310793;22;20526;-78
2023/03/19 11:42:20;;;;;;;2.67;2.47;;;;;;;;;;6302613;22;20403;-78
2023/03/19 11:45:07;;;;;;;3.00;2.70;;;;;;;;;;6314833;22;20466;-78
2023/03/19 11:47:55;;;;;;;3.60;2.40;;;;;;;;;;6316498;22;20418;-79
2023/03/19 11:53:23;;;;;;;3.63;2.33;;;;;;;;;;6308707;22;21142;-76
2023/03/19 11:55:57;;;;;;;2.90;1.90;;;;;;;;;;6313089;22;20498;-77
2023/03/19 11:58:42;;;;;;;3.70;2.27;;;;;;;;;;6313140;22;20415;-77
2023/03/19 12:01:24;;;;;;;2.50;2.23;;;;;;;;;;6313217;22;20396;-79
2023/03/19 12:04:09;;;;;;;2.47;2.20;;;;;;;;;;6313044;22;20427;-77
2023/03/19 12:07:10;;;;;;;2.30;1.73;;;;;;;;;;6313535;22;20419;-78
2023/03/19 12:12:43;;;;;;;3.80;2.20;;;;;;;;;;6314270;22;20404;-78
2023/03/19 12:15:33;;;;;;;2.60;2.40;;;;;;;;;;6314292;22;20432;-78
2023/03/19 12:18:46;;;;;;;2.70;2.50;;;;;;;;;;6317965;22;20427;-77
2023/03/19 12:21:34;;;;;;;3.50;2.30;;;;;;;;;;6229709;22;20452;-77
2023/03/19 12:24:27;;;;;;;3.30;2.37;;;;;;;;;;6298673;22;20514;-77
2023/03/19 12:27:24;;;;;;;2.40;1.97;;;;;;;;;;6310466;22;20406;-76
2023/03/19 12:30:06;;;;;;;2.60;2.40;;;;;;;;;;6310921;22;20439;-76
2023/03/19 12:35:35;;;;;;;2.33;2.10;;;;;;;;;;6310984;22;20457;-77
2023/03/19 12:38:25;;;;;;;3.57;2.53;;;;;;;;;;6308967;22;20438;-78
2023/03/19 12:41:18;;;;;;;2.60;2.40;;;;;;;;;;6213071;23;20762;-77
2023/03/19 12:44:07;;;;;;;4.33;2.60;;;;;;;;;;6307081;22;20431;-77
2023/03/19 12:46:45;;;;;;;2.57;2.20;;;;;;;;;;6308644;22;20477;-77
2023/03/19 12:49:18;;;;;;;2.30;2.10;;;;;;;;;;6308295;22;20411;-77
2023/03/19 12:51:52;;;;;;;5.63;3.30;;;;;;;;;;6307530;22;20392;-77
2023/03/19 13:03:24;;;;;;;5.60;3.00;;;;;;;;;;6264731;22;20410;-78
2023/03/19 13:06:10;;;;;;;2.50;2.30;;;;;;;;;;6311935;22;20411;-77
2023/03/19 13:08:45;;;;;;;3.17;2.90;;;;;;;;;;6314872;22;20407;-77
2023/03/19 13:11:22;;;;;;;4.20;3.50;;;;;;;;;;6310609;22;20415;-76
2023/03/19 13:14:07;;;;;;;3.23;2.87;;;;;;;;;;6310137;22;20517;-77
2023/03/19 13:16:46;;;;;;;2.10;2.00;;;;;;;;;;6308584;22;20851;-78
2023/03/19 13:19:22;;;;;;;2.87;2.27;;;;;;;;;;6308593;22;20919;-77
2023/03/19 13:21:55;;;;;;;4.20;2.93;;;;;;;;;;6306392;22;20384;-75
2023/03/19 13:24:26;;;;;;;5.43;3.33;;;;;;;;;;6305967;22;20983;-75
2023/03/19 13:26:54;;;;;;;2.60;2.40;;;;;;;;;;6305520;22;20404;-75
2023/03/19 13:29:22;;;;;;;3.83;3.40;;;;;;;;;;6305754;22;20419;-76
2023/03/19 13:31:55;;;;;;;3.00;2.80;;;;;;;;;;6306018;22;20415;-76
2023/03/19 13:34:28;;;;;;;3.30;3.00;;;;;;;;;;6307946;22;20442;-76
2023/03/19 13:37:01;;;;;;;3.43;2.50;;;;;;;;;;6309883;22;20443;-77
2023/03/19 13:39:34;;;;;;;3.00;2.67;;;;;;;;;;6306880;22;20465;-77
2023/03/19 13:42:19;;;;;;;3.20;2.90;;;;;;;;;;6310118;22;20490;-77
2023/03/19 13:44:50;;;;;;;2.97;2.73;;;;;;;;;;6310807;22;20495;-76
2023/03/19 13:47:41;;;;;;;4.30;3.50;;;;;;;;;;6313690;22;20399;-77
2023/03/19 13:50:46;;;;;;;3.20;2.90;;;;;;;;;;6315371;22;20422;-76
2023/03/19 13:53:38;;;;;;;4.43;3.20;;;;;;;;;;6216426;23;20405;-77
2023/03/19 13:56:14;;;;;;;3.00;2.50;;;;;;;;;;6217205;23;20444;-77
2023/03/19 13:59:07;;;;;;;2.43;2.30;;;;;;;;;;6287524;22;20411;-78
2023/03/19 14:01:47;;;;;;;2.67;2.47;;;;;;;;;;6315619;22;20431;-77
2023/03/19 14:04:26;;;;;;;2.83;2.63;;;;;;;;;;6316504;22;20434;-77
2023/03/19 14:06:56;;;;;;;3.10;2.23;;;;;;;;;;6315485;22;20482;-76
2023/03/19 14:09:46;;;;;;;3.00;2.80;;;;;;;;;;6316058;22;20407;-76
2023/03/19 14:12:41;;;;;;;;;;;;;;;;;;;;;
2023/03/19 14:15:21;;;;;;;3.80;2.77;;;;;;;;;;6319264;22;20410;-77
2023/03/19 14:18:00;;;;;;;3.20;2.90;;;;;;;;;;6315621;22;20435;-76
2023/03/19 14:20:32;;;;;;;3.20;2.90;;;;;;;;;;6318214;22;20427;-76
2023/03/19 14:23:21;;;;;;;4.50;3.97;;;;;;;;;;6321997;22;20403;-76
2023/03/19 14:26:10;;;;;;;3.90;3.60;;;;;;;;;;6319551;22;20408;-77
2023/03/19 14:28:44;;;;;;;3.20;3.00;;;;;;;;;;6278925;22;20672;-77
2023/03/19 14:31:23;;;;;;;3.33;2.93;;;;;;;;;;6316359;22;20410;-78
2023/03/19 14:34:15;;;;;;;4.27;3.87;;;;;;;;;;6316750;22;20461;-77
2023/03/19 14:36:47;;;;;;;5.53;3.83;;;;;;;;;;6316114;22;20466;-77
2023/03/19 14:39:26;;;;;;;3.57;3.27;;;;;;;;;;6319291;22;20408;-77
2023/03/19 14:42:03;;;;;;;3.30;3.10;;;;;;;;;;6318386;22;20415;-77
2023/03/19 14:44:51;;;;;;;3.63;3.33;;;;;;;;;;6320670;22;20427;-77
2023/03/19 14:47:26;;;;;;;4.30;3.30;;;;;;;;;;6321516;22;21053;-76
2023/03/19 14:50:15;;;;;;;4.13;3.30;;;;;;;;;;6322417;22;20415;-76
2023/03/19 14:52:45;;;;;;;3.80;3.60;;;;;;;;;;6323007;22;20413;-78
2023/03/19 14:55:16;;;;;;;3.70;3.40;;;;;;;;;;6322234;22;20414;-76
2023/03/19 14:57:44;;;;;;;3.70;3.40;;;;;;;;;;6317665;22;20455;-77
2023/03/19 15:00:17;;;;;;;4.07;3.50;;;;;;;;;;6315684;22;20411;-77
2023/03/19 15:02:48;;;;;;;4.67;3.73;;;;;;;;;;6319081;22;20464;-78
2023/03/19 15:05:19;;;;;;;4.13;3.20;;;;;;;;;;6318654;22;20435;-78
2023/03/19 15:07:47;;;;;;;3.90;3.60;;;;;;;;;;6319368;22;20407;-77
2023/03/19 15:10:17;;;;;;;3.80;3.53;;;;;;;;;;6321432;22;20415;-77
2023/03/19 15:13:15;;;;;;;3.03;2.83;;;;;;;;;;6323065;22;20424;-77
2023/03/19 15:15:55;;;;;;;2.87;2.50;;;;;;;;;;6323141;22;20479;-77
2023/03/19 15:18:25;;;;;;;3.70;2.67;;;;;;;;;;6322357;22;20957;-76
2023/03/19 15:21:04;;;;;;;2.30;2.10;;;;;;;;;;6320582;22;20407;-77
2023/03/19 15:23:35;;;;;;;4.40;2.87;;;;;;;;;;6318517;22;20391;-77
2023/03/19 15:26:07;;;;;;;4.17;2.67;;;;;;;;;;6317966;22;20415;-78
2023/03/19 15:28:48;;;;;;;2.60;2.40;;;;;;;;;;6318255;22;20753;-77
2023/03/19 15:31:23;;;;;;;2.73;2.53;;;;;;;;;;6319942;22;20407;-78
2023/03/19 15:33:58;;;;;;;2.70;2.50;;;;;;;;;;6318320;22;20462;-76
2023/03/19 15:36:33;;;;;;;3.23;2.90;;;;;;;;;;6320833;22;20469;-77
2023/03/19 15:39:03;;;;;;;3.10;2.90;;;;;;;;;;6320789;22;20403;-78
2023/03/19 15:41:35;;;;;;;3.60;3.07;;;;;;;;;;6319258;22;20408;-77
2023/03/19 15:44:06;;;;;;;3.57;2.30;;;;;;;;;;6317774;22;20427;-78
2023/03/19 15:52:44;;;;;;;6.13;4.93;;;;;;;;;;6219080;22;20416;-77
2023/03/19 15:55:15;;;;;;;3.33;3.03;;;;;;;;;;6313028;22;20434;-77
2023/03/19 15:57:48;;;;;;;3.50;3.20;;;;;;;;;;6311439;22;20443;-78
2023/03/19 16:03:38;;;;;;;3.27;2.97;;;;;;;;;;6305966;22;20502;-78
2023/03/19 16:06:15;;;;;;;3.90;2.70;;;;;;;;;;6312173;22;20412;-79
2023/03/19 16:09:16;;;;;;;4.10;3.70;;;;;;;;;;6309871;22;20407;-78
2023/03/19 16:12:01;;;;;;;3.13;2.83;;;;;;;;;;6314285;22;20494;-80
2023/03/19 16:14:38;;;;;;;3.67;3.30;;;;;;;;;;6315578;22;20480;-78
2023/03/19 16:17:14;;;;;;;3.20;3.00;;;;;;;;;;6318037;22;20434;-77
2023/03/19 16:20:05;;;;;;;3.30;2.80;;;;;;;;;;6319522;22;20428;-77
2023/03/19 16:22:43;;;;;;;5.07;2.70;;;;;;;;;;6322442;22;20494;-78
2023/03/19 16:25:18;;;;;;;3.70;3.23;;;;;;;;;;6321240;22;20441;-77
2023/03/19 16:27:54;;;;;;;4.00;3.70;;;;;;;;;;6318893;22;20407;-76
2023/03/19 16:30:30;;;;;;;3.47;3.17;;;;;;;;;;6318148;22;20742;-77
2023/03/19 16:33:05;;;;;;;3.57;2.97;;;;;;;;;;6318787;22;20439;-76
2023/03/19 16:35:50;;;;;;;4.03;3.73;;;;;;;;;;6319469;22;20432;-77
2023/03/19 16:38:24;;;;;;;5.00;3.20;;;;;;;;;;6323838;22;20427;-78
2023/03/19 16:41:19;;;;;;;3.47;3.17;;;;;;;;;;6322996;22;20411;-77
2023/03/19 16:43:49;;;;;;;5.47;4.20;;;;;;;;;;6321304;22;20769;-77
2023/03/19 16:46:22;;;;;;;4.07;3.77;;;;;;;;;;6320744;22;20415;-77
2023/03/19 16:48:58;;;;;;;4.20;3.80;;;;;;;;;;6320950;22;20698;-76
2023/03/19 16:51:54;;;;;;;5.03;3.50;;;;;;;;;;6321391;22;20422;-76
2023/03/19 16:54:35;;;;;;;8.10;7.30;;;;;;;;;;6317741;22;20440;-76
2023/03/19 16:57:18;;;;;;;5.13;4.50;;;;;;;;;;6313934;22;20446;-76
2023/03/19 16:59:47;;;;;;;9.80;8.90;;;;;;;;;;6313700;22;20414;-78
2023/03/19 17:02:21;;;;;;;10.90;9.80;;;;;;;;;;6315757;22;20407;-77
2023/03/19 17:04:58;;;;;;;5.97;4.30;;;;;;;;;;6317307;22;20427;-76
2023/03/19 17:07:28;;;;;;;5.50;5.00;;;;;;;;;;6315856;22;20480;-76
2023/03/19 17:10:04;;;;;;;6.47;5.17;;;;;;;;;;6316187;22;20438;-78
2023/03/19 17:12:32;;;;;;;7.00;4.57;;;;;;;;;;6314021;22;20415;-77
2023/03/19 17:15:01;;;;;;;6.17;4.73;;;;;;;;;;6317141;22;20455;-78
2023/03/19 17:17:53;;;;;;;5.23;4.70;;;;;;;;;;6316940;22;20436;-78
2023/03/19 17:20:38;;;;;;;5.20;4.80;;;;;;;;;;6310063;22;20873;-79
2023/03/19 17:23:37;;;;;;;5.47;5.00;;;;;;;;;;6300693;22;20908;-79
2023/03/19 17:26:18;;;;;;;6.60;5.70;;;;;;;;;;6317427;22;20403;-81
2023/03/19 17:28:58;;;;;;;4.87;4.50;;;;;;;;;;6318445;22;20722;-78
2023/03/19 17:31:31;;;;;;;4.60;4.30;;;;;;;;;;6318023;22;20388;-78
2023/03/19 17:34:06;;;;;;;6.13;4.30;;;;;;;;;;6319659;22;20431;-78
2023/03/19 17:39:37;;;;;;;4.70;4.30;;;;;;;;;;6305037;22;20400;-78
2023/03/19 17:42:18;;;;;;;5.20;4.80;;;;;;;;;;6321132;22;20410;-77
2023/03/19 17:44:50;;;;;;;5.70;5.30;;;;;;;;;;6319463;22;20695;-77
2023/03/19 17:47:19;;;;;;;4.23;3.80;;;;;;;;;;6318375;22;20483;-77
2023/03/19 17:49:51;;;;;;;3.47;3.17;;;;;;;;;;6318366;22;20411;-77
2023/03/19 17:52:25;;;;;;;2.80;2.60;;;;;;;;;;6322383;22;20411;-76
2023/03/19 17:55:02;;;;;;;2.60;2.10;;;;;;;;;;6325961;22;20449;-78
2023/03/19 17:57:33;;;;;;;2.00;1.90;;;;;;;;;;6317159;22;20477;-75
2023/03/19 18:00:03;;;;;;;2.50;1.93;;;;;;;;;;6319116;22;20483;-76
2023/03/19 18:02:52;;;;;;;;;;;;;;;;;;;;;
2023/03/19 18:05:32;;;;;;;2.23;2.03;;;;;;;;;;6318990;22;20440;-77
2023/03/19 18:08:01;;;;;;;3.17;2.63;;;;;;;;;;6314410;22;20407;-77
2023/03/19 18:10:33;;;;;;;4.17;2.60;;;;;;;;;;6314348;22;20473;-76
2023/03/19 18:13:15;;;;;;;4.53;3.53;;;;;;;;;;6315646;22;20419;-78
2023/03/19 18:15:46;;;;;;;2.50;2.20;;;;;;;;;;6314854;22;20507;-76
2023/03/19 18:18:38;;;;;;;;;;;;;;;;;;;;;
2023/03/19 18:21:30;;;;;;;1.77;1.67;;;;;;;;;;6316613;22;20376;-78
2023/03/19 18:30:04;;;;;;;2.83;2.63;;;;;;;;;;6314802;22;20391;-77
2023/03/19 18:35:44;;;;;;;2.83;2.63;;;;;;;;;;6281931;22;20746;-77
2023/03/19 18:38:30;;;;;;;3.40;3.20;;;;;;;;;;6312224;22;20439;-78
2023/03/19 18:44:25;;;;;;;3.00;2.80;;;;;;;;;;6306700;22;20514;-77
2023/03/19 18:46:57;;;;;;;3.83;3.43;;;;;;;;;;6322318;22;20422;-77
2023/03/19 18:49:27;;;;;;;2.87;2.67;;;;;;;;;;6321710;22;20418;-79
2023/03/19 18:54:39;;;;;;;3.10;2.90;;;;;;;;;;6321296;22;20438;-78
2023/03/19 18:57:12;;;;;;;3.83;3.33;;;;;;;;;;6324661;22;20411;-77
2023/03/19 18:59:41;;;;;;;5.23;4.73;;;;;;;;;;6322661;22;20479;-78
2023/03/19 19:02:42;;;;;;;4.27;3.87;;;;;;;;;;6322926;22;21379;-78
2023/03/19 19:05:14;;;;;;;3.80;3.10;;;;;;;;;;6324384;22;20403;-78
2023/03/19 19:10:44;;;;;;;4.43;4.03;;;;;;;;;;6298577;22;20414;-79
2023/03/19 19:13:14;;;;;;;4.10;3.80;;;;;;;;;;6319015;22;20399;-78
2023/03/19 19:15:43;;;;;;;4.50;4.10;;;;;;;;;;6322050;22;20455;-77
2023/03/19 19:18:15;;;;;;;3.60;3.30;;;;;;;;;;6318730;22;20435;-78
2023/03/19 19:20:44;;;;;;;4.40;4.10;;;;;;;;;;6313143;22;20423;-79
2023/03/19 19:23:15;;;;;;;4.37;4.07;;;;;;;;;;6312929;22;20414;-79
2023/03/19 19:25:43;;;;;;;7.73;6.60;;;;;;;;;;6318470;22;20434;-78
2023/03/19 19:28:15;;;;;;;7.40;6.70;;;;;;;;;;6320201;22;20395;-78
2023/03/19 19:30:57;;;;;;;;;;;;;;;;;;;;;
2023/03/19 19:33:26;;;;;;;5.27;4.80;;;;;;;;;;6315088;22;20431;-79
2023/03/19 19:35:56;;;;;;;5.63;5.03;;;;;;;;;;6316666;22;20806;-77
2023/03/19 19:38:29;;;;;;;5.90;5.40;;;;;;;;;;6310290;22;20506;-77
2023/03/19 19:40:58;;;;;;;6.87;6.17;;;;;;;;;;6319074;22;20482;-78
2023/03/19 19:43:32;;;;;;;6.23;5.70;;;;;;;;;;6323069;22;20807;-78
2023/03/19 19:46:06;;;;;;;6.30;5.80;;;;;;;;;;6323512;22;20395;-78
2023/03/19 19:48:35;;;;;;;6.00;5.60;;;;;;;;;;6323671;22;20478;-78
2023/03/19 19:51:03;;;;;;;8.20;6.23;;;;;;;;;;6323509;22;20426;-78
2023/03/19 19:53:42;;;;;;;7.73;7.07;;;;;;;;;;6323264;22;20399;-78
2023/03/19 19:56:20;;;;;;;8.47;7.73;;;;;;;;;;6323164;22;20901;-77
2023/03/19 19:58:50;;;;;;;192.63;130.87;;;;;;;;;;6323474;22;20435;-78
2023/03/19 20:01:25;;;;;;;182.13;143.57;;;;;;;;;;6325653;22;20771;-78
2023/03/19 20:03:54;;;;;;;28.60;22.63;;;;;;;;;;6323939;22;20411;-77
2023/03/19 20:06:22;;;;;;;7.90;7.20;;;;;;;;;;6323529;22;20403;-78
2023/03/19 20:08:55;;;;;;;7.53;6.93;;;;;;;;;;6322478;22;20400;-80
2023/03/19 20:11:24;;;;;;;7.30;6.47;;;;;;;;;;6322790;22;20407;-79
2023/03/19 20:13:54;;;;;;;6.20;5.70;;;;;;;;;;6322742;22;20434;-79
2023/03/19 20:16:23;;;;;;;6.93;6.10;;;;;;;;;;6323338;22;20411;-78
2023/03/19 20:18:57;;;;;;;8.23;6.23;;;;;;;;;;6321174;22;20519;-79
2023/03/19 20:21:25;;;;;;;7.30;6.77;;;;;;;;;;6322304;22;20474;-78
2023/03/19 20:23:54;;;;;;;7.83;6.60;;;;;;;;;;6320671;22;20451;-80
2023/03/19 20:26:29;;;;;;;22.97;20.77;;;;;;;;;;6320894;22;20431;-78
2023/03/19 20:29:02;;;;;;;10.07;9.17;;;;;;;;;;6316553;22;20484;-80
2023/03/19 20:31:36;;;;;;;10.87;9.53;;;;;;;;;;6314675;22;20451;-78
2023/03/19 20:34:03;;;;;;;8.77;8.07;;;;;;;;;;6315899;22;20428;-78